Time;durP1;ratioP1;P1;durP2;ratioP2;P2;SDS_P1;SDS_P2;PMS_P1;PMS_P2;Temp;Humidity;BMP_temperature;BMP_pressure;BME280_temperature;BME280_humidity;BME280_pressure;Samples;Min_cycle;Max_cycle;Signal;HPM_P1;HPM_P2
2024/04/17 00:02:10;;;;;;;11.20;3.50;;;;;;;;;;5334183;26;25041;-70
2024/04/17 00:04:36;;;;;;;22.02;4.20;;;;;;;;;;5347896;26;25073;-72
2024/04/17 00:07:20;;;;;;;16.15;4.13;;;;;;;;;;5334387;26;25031;-70
2024/04/17 00:09:46;;;;;;;17.85;4.75;;;;;;;;;;5340475;26;25071;-70
2024/04/17 00:12:12;;;;;;;21.08;4.32;;;;;;;;;;5340629;26;25096;-69
2024/04/17 00:14:57;;;;;;;13.10;3.90;;;;;;;;;;5422633;21;25046;-69
2024/04/17 00:17:49;;;;;;;14.95;3.47;;;;;;;;;;5389356;26;25068;-70
2024/04/17 00:20:15;;;;;;;18.10;5.47;;;;;;;;;;5393893;26;25044;-69
2024/04/17 00:22:57;;;;;;;20.95;5.10;;;;;;;;;;5406330;26;25040;-71
2024/04/17 00:25:24;;;;;;;16.33;4.00;;;;;;;;;;5385506;26;25053;-71
2024/04/17 00:27:50;;;;;;;16.02;4.50;;;;;;;;;;5393471;26;25038;-70
2024/04/17 00:30:16;;;;;;;12.70;3.92;;;;;;;;;;5374202;26;25079;-71
2024/04/17 00:32:42;;;;;;;18.35;3.97;;;;;;;;;;5391142;26;25058;-70
2024/04/17 00:35:24;;;;;;;20.88;4.20;;;;;;;;;;5360196;26;25064;-70
2024/04/17 00:37:50;;;;;;;15.15;3.88;;;;;;;;;;5387262;26;25056;-74
2024/04/17 00:40:16;;;;;;;16.38;4.68;;;;;;;;;;5371725;26;25056;-68
2024/04/17 00:42:42;;;;;;;13.23;4.03;;;;;;;;;;5378310;26;25069;-69
2024/04/17 00:45:08;;;;;;;12.27;3.30;;;;;;;;;;5364859;26;25073;-71
2024/04/17 00:47:34;;;;;;;19.10;3.65;;;;;;;;;;5372316;26;25062;-71
2024/04/17 00:50:00;;;;;;;23.02;4.10;;;;;;;;;;5362983;26;25052;-70
2024/04/17 00:52:26;;;;;;;16.35;2.92;;;;;;;;;;5367074;26;25062;-70
2024/04/17 00:54:53;;;;;;;10.82;2.80;;;;;;;;;;5369951;26;25056;-70
2024/04/17 00:57:20;;;;;;;11.63;3.72;;;;;;;;;;5373730;26;25053;-72
2024/04/17 00:59:46;;;;;;;12.35;3.53;;;;;;;;;;5373356;26;25032;-69
2024/04/17 01:02:12;;;;;;;16.02;3.97;;;;;;;;;;5379384;26;25023;-71
2024/04/17 01:04:39;;;;;;;15.50;3.15;;;;;;;;;;5362494;26;26181;-72
2024/04/17 01:07:05;;;;;;;14.60;3.17;;;;;;;;;;5380296;26;25100;-72
2024/04/17 01:09:54;;;;;;;9.52;2.30;;;;;;;;;;5372178;26;25062;-70
2024/04/17 01:12:22;;;;;;;12.27;2.85;;;;;;;;;;5372732;26;25049;-70
2024/04/17 01:14:48;;;;;;;14.13;3.58;;;;;;;;;;5383235;26;25046;-69
2024/04/17 01:17:53;;;;;;;7.85;2.17;;;;;;;;;;5378871;26;25134;-70
2024/04/17 01:20:19;;;;;;;9.85;2.30;;;;;;;;;;5378232;26;25066;-70
2024/04/17 01:22:45;;;;;;;7.05;1.70;;;;;;;;;;5384054;26;25065;-68
2024/04/17 01:25:11;;;;;;;6.88;2.20;;;;;;;;;;5368802;26;25046;-71
2024/04/17 01:27:37;;;;;;;6.00;2.10;;;;;;;;;;5378244;26;25070;-68
2024/04/17 01:30:04;;;;;;;7.00;1.88;;;;;;;;;;5363198;26;25052;-69
2024/04/17 01:32:30;;;;;;;6.25;1.52;;;;;;;;;;5362853;26;25074;-70
2024/04/17 01:34:56;;;;;;;13.20;1.83;;;;;;;;;;5373772;26;25048;-73
2024/04/17 01:37:22;;;;;;;3.88;1.60;;;;;;;;;;5375486;26;25126;-72
2024/04/17 01:39:48;;;;;;;5.55;1.42;;;;;;;;;;5358420;26;25060;-72
2024/04/17 01:42:14;;;;;;;4.53;1.40;;;;;;;;;;5363948;26;25049;-72
2024/04/17 01:44:40;;;;;;;8.40;2.65;;;;;;;;;;5368990;26;25071;-71
2024/04/17 01:47:06;;;;;;;7.95;1.88;;;;;;;;;;5366970;26;25045;-70
2024/04/17 01:49:32;;;;;;;6.68;1.60;;;;;;;;;;5361287;26;25058;-70
2024/04/17 01:51:58;;;;;;;7.93;1.73;;;;;;;;;;5370075;26;25042;-71
2024/04/17 01:54:24;;;;;;;5.05;1.98;;;;;;;;;;5373617;26;25154;-70
2024/04/17 01:56:51;;;;;;;4.20;1.60;;;;;;;;;;5375487;26;25055;-69
2024/04/17 01:59:17;;;;;;;7.13;1.48;;;;;;;;;;5338819;26;25053;-71
2024/04/17 02:01:45;;;;;;;4.38;1.60;;;;;;;;;;5373167;26;25044;-70
2024/04/17 02:04:11;;;;;;;4.22;1.83;;;;;;;;;;5365288;26;25037;-70
2024/04/17 02:06:37;;;;;;;4.18;1.88;;;;;;;;;;5412779;21;25055;-76
2024/04/17 02:09:03;;;;;;;5.75;1.63;;;;;;;;;;5360717;26;25108;-77
2024/04/17 02:11:29;;;;;;;5.35;1.88;;;;;;;;;;5367011;26;25053;-76
2024/04/17 02:13:55;;;;;;;6.80;1.90;;;;;;;;;;5371425;26;25081;-75
2024/04/17 02:16:21;;;;;;;4.80;1.58;;;;;;;;;;5345035;26;25060;-73
2024/04/17 02:18:46;;;;;;;3.80;1.50;;;;;;;;;;5358302;26;25036;-77
2024/04/17 02:21:13;;;;;;;4.72;1.65;;;;;;;;;;5362343;26;25043;-75
2024/04/17 02:23:38;;;;;;;4.00;1.90;;;;;;;;;;5369147;26;25070;-76
2024/04/17 02:26:04;;;;;;;5.25;1.55;;;;;;;;;;5355470;26;25083;-74
2024/04/17 02:28:30;;;;;;;3.67;1.25;;;;;;;;;;5367823;26;25101;-75
2024/04/17 02:30:56;;;;;;;4.63;1.38;;;;;;;;;;5373553;26;25041;-75
2024/04/17 02:33:22;;;;;;;8.98;1.92;;;;;;;;;;5368883;26;25093;-75
2024/04/17 02:35:48;;;;;;;3.92;1.80;;;;;;;;;;5368226;26;25107;-76
2024/04/17 02:38:14;;;;;;;4.97;1.60;;;;;;;;;;5337839;26;25125;-77
2024/04/17 02:40:40;;;;;;;6.18;1.58;;;;;;;;;;5371540;26;25049;-75
2024/04/17 02:43:06;;;;;;;5.20;2.15;;;;;;;;;;5365491;26;25074;-77
2024/04/17 02:45:32;;;;;;;5.57;1.42;;;;;;;;;;5362503;26;25319;-77
2024/04/17 02:48:00;;;;;;;7.63;1.80;;;;;;;;;;5375772;26;25090;-76
2024/04/17 02:50:26;;;;;;;7.22;1.70;;;;;;;;;;5369733;26;25042;-74
2024/04/17 02:52:52;;;;;;;12.73;1.85;;;;;;;;;;5379009;26;25081;-75
2024/04/17 02:55:18;;;;;;;4.72;1.60;;;;;;;;;;5374186;26;25068;-77
2024/04/17 02:57:44;;;;;;;6.40;1.85;;;;;;;;;;5373854;26;25055;-77
2024/04/17 03:00:10;;;;;;;2.75;1.30;;;;;;;;;;5378406;26;25377;-77
2024/04/17 03:02:36;;;;;;;8.98;1.95;;;;;;;;;;5365714;26;25115;-76
2024/04/17 03:05:02;;;;;;;5.03;1.80;;;;;;;;;;5370008;26;25479;-76
2024/04/17 03:07:28;;;;;;;7.07;1.80;;;;;;;;;;5327711;26;25143;-77
2024/04/17 03:09:54;;;;;;;12.90;1.90;;;;;;;;;;5331268;26;25050;-77
2024/04/17 03:12:20;;;;;;;9.38;2.55;;;;;;;;;;5353757;26;25031;-78
2024/04/17 03:14:46;;;;;;;16.10;2.60;;;;;;;;;;5330571;26;25056;-76
2024/04/17 03:17:12;;;;;;;13.88;2.65;;;;;;;;;;5365292;26;25107;-76
2024/04/17 03:19:38;;;;;;;12.98;2.47;;;;;;;;;;5358619;26;25057;-75
2024/04/17 03:22:04;;;;;;;9.40;2.30;;;;;;;;;;5355002;26;25039;-75
2024/04/17 03:24:30;;;;;;;9.70;2.13;;;;;;;;;;5326570;26;25042;-76
2024/04/17 03:26:56;;;;;;;8.13;1.85;;;;;;;;;;5367512;26;25064;-76
2024/04/17 03:29:22;;;;;;;8.82;2.30;;;;;;;;;;5359409;26;25033;-75
2024/04/17 03:31:48;;;;;;;10.80;2.45;;;;;;;;;;5367645;26;25067;-76
2024/04/17 03:34:14;;;;;;;9.40;2.20;;;;;;;;;;5359756;26;25060;-76
2024/04/17 03:36:40;;;;;;;5.40;2.40;;;;;;;;;;5365395;26;25051;-79
2024/04/17 03:39:06;;;;;;;7.47;2.80;;;;;;;;;;5365775;26;25091;-75
2024/04/17 03:41:32;;;;;;;6.80;2.47;;;;;;;;;;5363616;26;25052;-77
2024/04/17 03:43:58;;;;;;;6.25;3.53;;;;;;;;;;5367879;26;25095;-77
2024/04/17 03:46:23;;;;;;;5.60;2.58;;;;;;;;;;5363334;26;25108;-77
2024/04/17 03:48:49;;;;;;;8.98;3.05;;;;;;;;;;5364061;26;25038;-76
2024/04/17 03:51:15;;;;;;;8.68;3.17;;;;;;;;;;5362156;26;25138;-77
2024/04/17 03:53:41;;;;;;;10.30;3.30;;;;;;;;;;5354977;26;25053;-76
2024/04/17 03:56:07;;;;;;;9.57;3.58;;;;;;;;;;5361454;26;25050;-76
2024/04/17 03:58:33;;;;;;;6.38;3.55;;;;;;;;;;5362961;26;25043;-77
2024/04/17 04:00:59;;;;;;;13.00;4.72;;;;;;;;;;5367831;26;25059;-78
2024/04/17 04:03:25;;;;;;;8.52;4.13;;;;;;;;;;5354089;26;25087;-76
2024/04/17 04:05:51;;;;;;;7.57;4.00;;;;;;;;;;5357603;26;25060;-76
2024/04/17 04:08:17;;;;;;;10.38;4.00;;;;;;;;;;5335916;26;25035;-77
2024/04/17 04:10:43;;;;;;;9.82;4.70;;;;;;;;;;5361098;26;25149;-77
2024/04/17 04:13:09;;;;;;;9.80;4.72;;;;;;;;;;5366256;26;25064;-76
2024/04/17 04:15:35;;;;;;;10.07;4.53;;;;;;;;;;5327426;26;25037;-77
2024/04/17 04:18:01;;;;;;;13.40;4.72;;;;;;;;;;5368210;26;25100;-76
2024/04/17 04:20:27;;;;;;;8.75;4.43;;;;;;;;;;5366910;26;25073;-76
2024/04/17 04:22:53;;;;;;;14.00;5.15;;;;;;;;;;5335767;26;25057;-75
2024/04/17 04:25:19;;;;;;;14.13;4.53;;;;;;;;;;5365991;26;25056;-76
2024/04/17 04:27:45;;;;;;;9.23;4.78;;;;;;;;;;5361263;26;25127;-76
2024/04/17 04:30:11;;;;;;;7.13;4.43;;;;;;;;;;5369143;26;25039;-76
2024/04/17 04:32:37;;;;;;;8.55;4.95;;;;;;;;;;5339331;26;25039;-76
2024/04/17 04:35:03;;;;;;;14.52;5.53;;;;;;;;;;5363750;26;25045;-76
2024/04/17 04:37:30;;;;;;;9.32;4.70;;;;;;;;;;5370778;26;25048;-77
2024/04/17 04:39:55;;;;;;;11.65;4.70;;;;;;;;;;5362409;26;25040;-76
2024/04/17 04:42:21;;;;;;;12.65;5.10;;;;;;;;;;5365208;26;25047;-76
2024/04/17 04:44:48;;;;;;;19.90;6.28;;;;;;;;;;5360611;26;25047;-76
2024/04/17 04:47:14;;;;;;;13.80;5.43;;;;;;;;;;5358652;26;25068;-76
2024/04/17 04:49:40;;;;;;;14.23;6.20;;;;;;;;;;5370610;26;25063;-74
2024/04/17 04:52:07;;;;;;;14.93;6.10;;;;;;;;;;5369545;26;25043;-77
2024/04/17 04:54:32;;;;;;;9.88;5.22;;;;;;;;;;5360113;26;25049;-79
2024/04/17 04:56:58;;;;;;;11.60;4.68;;;;;;;;;;5360412;26;25126;-73
2024/04/17 04:59:24;;;;;;;13.85;5.03;;;;;;;;;;5364307;26;25043;-75
2024/04/17 05:01:50;;;;;;;15.68;5.20;;;;;;;;;;5366128;26;25044;-75
2024/04/17 05:04:16;;;;;;;12.98;5.35;;;;;;;;;;5366715;26;25035;-75
2024/04/17 05:06:42;;;;;;;13.65;4.75;;;;;;;;;;5359451;26;25040;-73
2024/04/17 05:09:08;;;;;;;13.18;5.25;;;;;;;;;;5359252;26;25022;-77
2024/04/17 05:11:34;;;;;;;11.95;4.85;;;;;;;;;;5361348;26;25052;-77
2024/04/17 05:14:00;;;;;;;14.25;4.72;;;;;;;;;;5360758;26;25047;-76
2024/04/17 05:16:26;;;;;;;14.90;4.68;;;;;;;;;;5366836;26;25067;-76
2024/04/17 05:18:52;;;;;;;14.95;4.90;;;;;;;;;;5359059;26;25070;-76
2024/04/17 05:21:18;;;;;;;13.80;4.45;;;;;;;;;;5374041;26;25049;-76
2024/04/17 05:23:44;;;;;;;14.27;4.35;;;;;;;;;;5381529;26;25060;-78
2024/04/17 05:26:10;;;;;;;14.55;4.18;;;;;;;;;;5376581;26;25075;-75
2024/04/17 05:28:36;;;;;;;19.25;4.57;;;;;;;;;;5374711;26;25041;-77
2024/04/17 05:31:02;;;;;;;12.90;4.70;;;;;;;;;;5368341;26;25052;-75
2024/04/17 05:33:28;;;;;;;19.27;4.28;;;;;;;;;;5357759;26;25053;-75
2024/04/17 05:35:54;;;;;;;17.77;3.95;;;;;;;;;;5337640;26;25135;-75
2024/04/17 05:38:20;;;;;;;12.40;4.18;;;;;;;;;;5364404;26;25064;-75
2024/04/17 05:40:46;;;;;;;17.67;4.22;;;;;;;;;;5360382;26;25051;-75
2024/04/17 05:43:14;;;;;;;16.45;4.30;;;;;;;;;;5364584;26;25030;-76
2024/04/17 05:45:40;;;;;;;16.20;4.10;;;;;;;;;;5360244;26;25031;-75
2024/04/17 05:48:06;;;;;;;23.77;4.88;;;;;;;;;;5371395;26;25049;-77
2024/04/17 05:50:32;;;;;;;21.33;3.75;;;;;;;;;;5362467;26;25072;-76
2024/04/17 05:52:58;;;;;;;21.13;4.25;;;;;;;;;;5368394;26;25127;-73
2024/04/17 05:55:25;;;;;;;16.40;3.47;;;;;;;;;;5362229;26;25044;-74
2024/04/17 05:57:51;;;;;;;22.88;3.65;;;;;;;;;;5342174;26;25027;-76
2024/04/17 06:00:19;;;;;;;21.42;3.45;;;;;;;;;;5363090;26;25113;-73
2024/04/17 06:02:45;;;;;;;21.08;3.70;;;;;;;;;;5369340;26;25050;-75
2024/04/17 06:05:10;;;;;;;14.85;3.22;;;;;;;;;;5366489;26;25058;-76
2024/04/17 06:07:38;;;;;;;20.30;3.95;;;;;;;;;;5370883;26;25048;-75
2024/04/17 06:10:04;;;;;;;18.98;3.50;;;;;;;;;;5360722;26;25057;-75
2024/04/17 06:12:30;;;;;;;19.42;3.67;;;;;;;;;;5367850;26;25065;-76
2024/04/17 06:14:56;;;;;;;21.20;4.45;;;;;;;;;;5370903;26;25062;-76
2024/04/17 06:17:22;;;;;;;25.50;4.95;;;;;;;;;;5375404;26;25058;-77
2024/04/17 06:19:48;;;;;;;14.13;3.15;;;;;;;;;;5365492;26;25111;-76
2024/04/17 06:22:15;;;;;;;21.77;3.35;;;;;;;;;;5376195;26;25044;-75
2024/04/17 06:24:41;;;;;;;15.90;3.38;;;;;;;;;;5382486;26;25052;-76
2024/04/17 06:27:07;;;;;;;18.85;3.47;;;;;;;;;;5380134;26;25035;-75
2024/04/17 06:29:33;;;;;;;20.15;3.58;;;;;;;;;;5348841;26;25067;-75
2024/04/17 06:31:59;;;;;;;13.25;3.47;;;;;;;;;;5378786;26;25062;-75
2024/04/17 06:34:25;;;;;;;16.38;3.45;;;;;;;;;;5374584;26;25065;-77
2024/04/17 06:36:51;;;;;;;15.80;4.13;;;;;;;;;;5337941;26;25044;-76
2024/04/17 06:39:17;;;;;;;16.13;4.22;;;;;;;;;;5343956;26;25047;-75
2024/04/17 06:41:43;;;;;;;23.27;4.30;;;;;;;;;;5359429;26;25051;-75
2024/04/17 06:44:13;;;;;;;18.15;3.25;;;;;;;;;;5362039;26;25057;-76
2024/04/17 06:46:39;;;;;;;12.93;3.35;;;;;;;;;;5372001;26;25061;-76
2024/04/17 06:49:05;;;;;;;14.52;3.53;;;;;;;;;;5371966;26;25066;-75
2024/04/17 06:51:31;;;;;;;13.07;2.97;;;;;;;;;;5360903;26;25035;-76
2024/04/17 06:53:57;;;;;;;16.20;3.78;;;;;;;;;;5367974;26;25078;-75
2024/04/17 06:56:23;;;;;;;19.13;3.70;;;;;;;;;;5332855;26;25166;-75
2024/04/17 06:58:49;;;;;;;18.08;3.13;;;;;;;;;;5369487;26;24741;-76
2024/04/17 07:01:15;;;;;;;18.88;4.43;;;;;;;;;;5338120;26;25045;-73
2024/04/17 07:03:41;;;;;;;10.88;3.28;;;;;;;;;;5342200;26;25081;-76
2024/04/17 07:06:07;;;;;;;18.77;2.50;;;;;;;;;;5342624;26;25055;-74
2024/04/17 07:08:33;;;;;;;11.98;3.22;;;;;;;;;;5372935;26;25079;-74
2024/04/17 07:10:59;;;;;;;12.15;2.47;;;;;;;;;;5381202;26;25042;-75
2024/04/17 07:13:25;;;;;;;15.13;2.85;;;;;;;;;;5362156;26;25040;-74
2024/04/17 07:15:52;;;;;;;15.55;3.15;;;;;;;;;;5355970;26;25053;-77
2024/04/17 07:18:18;;;;;;;9.57;2.67;;;;;;;;;;5337558;26;25089;-74
2024/04/17 07:20:44;;;;;;;16.95;3.30;;;;;;;;;;5331991;26;25078;-75
2024/04/17 07:23:10;;;;;;;15.00;3.28;;;;;;;;;;5367773;26;25047;-77
2024/04/17 07:25:36;;;;;;;13.10;2.28;;;;;;;;;;5343077;26;25043;-81
2024/04/17 07:28:02;;;;;;;12.75;2.63;;;;;;;;;;5373685;26;25086;-77
2024/04/17 07:30:28;;;;;;;9.68;2.50;;;;;;;;;;5383757;26;25068;-75
2024/04/17 07:32:54;;;;;;;8.27;2.03;;;;;;;;;;5368770;26;25034;-76
2024/04/17 07:35:20;;;;;;;9.88;2.33;;;;;;;;;;5381418;26;25066;-75
2024/04/17 07:37:46;;;;;;;7.68;2.40;;;;;;;;;;5345934;26;25039;-77
2024/04/17 07:40:14;;;;;;;6.55;1.90;;;;;;;;;;5372385;26;25112;-77
2024/04/17 07:42:41;;;;;;;9.93;2.17;;;;;;;;;;5361818;26;25112;-76
2024/04/17 07:45:07;;;;;;;7.35;2.15;;;;;;;;;;5364316;26;25058;-76
2024/04/17 07:47:33;;;;;;;6.10;1.60;;;;;;;;;;5341148;26;25041;-75
2024/04/17 07:49:59;;;;;;;4.10;1.40;;;;;;;;;;5352774;26;25048;-76
2024/04/17 07:52:25;;;;;;;2.80;1.20;;;;;;;;;;5351700;26;25036;-74
2024/04/17 07:54:50;;;;;;;5.70;1.58;;;;;;;;;;5324957;26;25089;-76
2024/04/17 07:57:16;;;;;;;5.75;2.10;;;;;;;;;;5337896;26;25084;-76
2024/04/17 07:59:42;;;;;;;3.45;2.20;;;;;;;;;;5336005;26;25059;-75
2024/04/17 08:02:08;;;;;;;2.97;1.67;;;;;;;;;;5361911;26;25048;-75
2024/04/17 08:04:34;;;;;;;5.18;1.60;;;;;;;;;;5356287;26;25050;-78
2024/04/17 08:07:00;;;;;;;1.77;1.67;;;;;;;;;;5355266;26;25050;-78
2024/04/17 08:09:26;;;;;;;2.08;1.58;;;;;;;;;;5366662;26;25122;-78
2024/04/17 08:11:52;;;;;;;1.90;1.80;;;;;;;;;;5358075;26;25134;-76
2024/04/17 08:14:18;;;;;;;2.10;2.00;;;;;;;;;;5380145;26;25058;-76
2024/04/17 08:16:44;;;;;;;3.58;2.50;;;;;;;;;;5380876;26;25059;-77
2024/04/17 08:19:10;;;;;;;2.50;2.40;;;;;;;;;;5375312;26;25076;-77
2024/04/17 08:21:36;;;;;;;3.88;2.50;;;;;;;;;;5335570;26;25043;-78
2024/04/17 08:24:02;;;;;;;3.60;3.30;;;;;;;;;;5373253;26;25070;-77
2024/04/17 08:26:28;;;;;;;3.95;3.20;;;;;;;;;;5363575;26;25055;-78
2024/04/17 08:28:54;;;;;;;3.63;3.33;;;;;;;;;;5357656;26;25042;-78
2024/04/17 08:31:20;;;;;;;3.78;3.40;;;;;;;;;;5338028;26;25096;-79
2024/04/17 08:33:46;;;;;;;7.00;3.70;;;;;;;;;;5359446;26;25052;-77
2024/04/17 08:36:12;;;;;;;2.85;2.60;;;;;;;;;;5359271;26;25055;-78
2024/04/17 08:38:39;;;;;;;5.15;3.70;;;;;;;;;;5345205;26;25107;-77
2024/04/17 08:41:05;;;;;;;8.93;3.67;;;;;;;;;;5367970;26;25055;-78
2024/04/17 08:43:33;;;;;;;3.78;3.42;;;;;;;;;;5369781;26;25098;-78
2024/04/17 08:46:00;;;;;;;4.20;3.30;;;;;;;;;;5382849;26;25569;-78
2024/04/17 08:48:26;;;;;;;3.58;3.28;;;;;;;;;;5383556;26;25048;-77
2024/04/17 08:50:52;;;;;;;4.28;3.50;;;;;;;;;;5350483;26;25038;-78
2024/04/17 08:53:19;;;;;;;3.90;2.88;;;;;;;;;;5385969;26;25033;-77
2024/04/17 08:55:45;;;;;;;4.68;2.70;;;;;;;;;;5370425;26;25083;-76
2024/04/17 08:58:11;;;;;;;4.25;2.00;;;;;;;;;;5395551;26;25070;-78
2024/04/17 09:00:40;;;;;;;1.85;1.75;;;;;;;;;;5386320;26;25071;-80
2024/04/17 09:03:10;;;;;;;2.50;1.73;;;;;;;;;;5378055;26;25038;-78
2024/04/17 09:05:35;;;;;;;3.90;1.33;;;;;;;;;;5363773;26;25094;-77
2024/04/17 09:08:01;;;;;;;1.77;1.50;;;;;;;;;;5377801;26;25056;-76
2024/04/17 09:10:28;;;;;;;4.20;1.98;;;;;;;;;;5381387;26;25057;-78
2024/04/17 09:12:54;;;;;;;3.90;1.40;;;;;;;;;;5371634;26;25070;-76
2024/04/17 09:15:21;;;;;;;3.38;1.70;;;;;;;;;;5355829;26;25058;-77
2024/04/17 09:17:47;;;;;;;6.28;1.63;;;;;;;;;;5369318;26;25057;-77
2024/04/17 09:20:14;;;;;;;1.60;1.50;;;;;;;;;;5361376;26;25050;-79
2024/04/17 09:22:40;;;;;;;2.90;1.75;;;;;;;;;;5364588;26;25051;-77
2024/04/17 09:25:16;;;;;;;2.45;1.67;;;;;;;;;;5357620;26;25061;-76
2024/04/17 09:27:42;;;;;;;4.43;1.65;;;;;;;;;;5372203;26;25064;-76
2024/04/17 09:30:08;;;;;;;3.53;1.40;;;;;;;;;;5355293;26;25062;-80
2024/04/17 09:32:34;;;;;;;2.90;1.08;;;;;;;;;;5335745;26;25058;-77
2024/04/17 09:35:00;;;;;;;6.07;1.60;;;;;;;;;;5347533;26;25049;-77
2024/04/17 09:37:26;;;;;;;1.50;1.33;;;;;;;;;;5371178;26;25049;-77
2024/04/17 09:40:02;;;;;;;4.25;1.40;;;;;;;;;;5362452;26;25057;-79
2024/04/17 09:42:30;;;;;;;2.60;1.23;;;;;;;;;;5367815;26;25066;-74
2024/04/17 09:44:58;;;;;;;2.83;1.33;;;;;;;;;;5368499;26;25066;-77
2024/04/17 09:47:24;;;;;;;3.05;1.40;;;;;;;;;;5357280;26;25111;-75
2024/04/17 09:49:53;;;;;;;4.45;1.38;;;;;;;;;;5361551;26;25043;-77
2024/04/17 09:52:20;;;;;;;3.95;1.83;;;;;;;;;;5372035;26;25050;-76
2024/04/17 09:54:46;;;;;;;5.80;2.33;;;;;;;;;;5336535;26;25043;-77
2024/04/17 09:57:12;;;;;;;4.20;1.85;;;;;;;;;;5371610;26;25101;-76
2024/04/17 09:59:39;;;;;;;9.68;1.85;;;;;;;;;;5368312;26;25048;-75
2024/04/17 10:02:08;;;;;;;4.60;1.50;;;;;;;;;;5382082;26;25051;-75
2024/04/17 10:04:35;;;;;;;2.83;1.70;;;;;;;;;;5372138;26;25042;-78
2024/04/17 10:07:02;;;;;;;7.38;2.03;;;;;;;;;;5371992;26;25063;-74
2024/04/17 10:09:29;;;;;;;4.68;1.80;;;;;;;;;;5362295;26;25047;-77
2024/04/17 10:11:56;;;;;;;7.53;2.22;;;;;;;;;;5367183;26;25047;-77
2024/04/17 10:14:23;;;;;;;5.82;2.17;;;;;;;;;;5354904;26;25042;-77
2024/04/17 10:16:49;;;;;;;3.00;1.58;;;;;;;;;;5371771;26;25060;-77
2024/04/17 10:19:15;;;;;;;6.18;2.05;;;;;;;;;;5361149;26;25050;-77
2024/04/17 10:21:42;;;;;;;5.93;2.60;;;;;;;;;;5357093;26;25069;-79
2024/04/17 10:24:12;;;;;;;3.63;2.10;;;;;;;;;;5371158;26;25063;-77
2024/04/17 10:26:42;;;;;;;2.10;1.90;;;;;;;;;;5370724;26;25083;-77
2024/04/17 10:29:24;;;;;;;2.70;2.20;;;;;;;;;;5360044;26;25089;-76
2024/04/17 10:31:56;;;;;;;4.95;2.53;;;;;;;;;;5366590;26;25068;-78
2024/04/17 10:34:22;;;;;;;;;;;;;;;;;;5350953;26;25093;-76
2024/04/17 10:36:55;;;;;;;6.25;2.33;;;;;;;;;;5356749;26;24061;-77
2024/04/17 10:39:21;;;;;;;2.47;2.17;;;;;;;;;;5341879;26;25051;-76
2024/04/17 10:41:47;;;;;;;7.05;3.53;;;;;;;;;;5371833;26;25114;-76
2024/04/17 10:44:13;;;;;;;3.15;2.33;;;;;;;;;;5374431;26;25068;-75
2024/04/17 10:46:39;;;;;;;2.70;2.28;;;;;;;;;;5357015;26;25059;-75
2024/04/17 10:49:15;;;;;;;2.67;2.22;;;;;;;;;;5374296;26;25035;-76
2024/04/17 10:51:42;;;;;;;5.65;2.90;;;;;;;;;;5362744;26;25044;-75
2024/04/17 10:54:08;;;;;;;3.45;2.92;;;;;;;;;;5376532;26;25053;-75
2024/04/17 10:56:34;;;;;;;4.40;3.20;;;;;;;;;;5367530;26;25144;-75
2024/04/17 10:59:01;;;;;;;7.75;3.20;;;;;;;;;;5365330;26;25058;-75
2024/04/17 11:01:27;;;;;;;3.55;2.45;;;;;;;;;;5361626;26;25062;-75
2024/04/17 11:03:53;;;;;;;3.92;2.35;;;;;;;;;;5355865;26;25042;-76
2024/04/17 11:06:19;;;;;;;4.40;2.33;;;;;;;;;;5358644;26;25063;-75
2024/04/17 11:08:46;;;;;;;2.80;2.60;;;;;;;;;;5370748;26;25084;-74
2024/04/17 11:11:12;;;;;;;2.75;2.60;;;;;;;;;;5374263;26;25055;-76
2024/04/17 11:13:44;;;;;;;2.95;2.75;;;;;;;;;;5374785;26;25044;-75
2024/04/17 11:16:13;;;;;;;3.08;2.88;;;;;;;;;;5370395;26;25041;-75
2024/04/17 11:18:41;;;;;;;3.75;3.45;;;;;;;;;;5382142;26;25034;-75
2024/04/17 11:21:07;;;;;;;3.90;3.20;;;;;;;;;;5390696;26;25072;-75
2024/04/17 11:23:45;;;;;;;4.05;3.28;;;;;;;;;;5387895;26;25035;-76
2024/04/17 11:26:12;;;;;;;5.60;3.55;;;;;;;;;;5387990;26;25045;-76
2024/04/17 11:28:41;;;;;;;6.32;4.50;;;;;;;;;;5369453;26;25066;-76
2024/04/17 11:31:11;;;;;;;7.55;5.20;;;;;;;;;;5373823;26;25059;-78
2024/04/17 11:33:40;;;;;;;4.97;4.53;;;;;;;;;;5370381;26;25061;-75
2024/04/17 11:36:11;;;;;;;6.57;4.40;;;;;;;;;;5367829;26;25062;-76
2024/04/17 11:38:37;;;;;;;6.05;4.10;;;;;;;;;;5382426;26;25054;-74
2024/04/17 11:41:03;;;;;;;5.53;3.33;;;;;;;;;;5371659;26;25050;-76
2024/04/17 11:43:29;;;;;;;9.57;5.18;;;;;;;;;;5370801;26;25050;-76
2024/04/17 11:45:55;;;;;;;6.40;3.40;;;;;;;;;;5389184;26;25074;-74
2024/04/17 11:48:21;;;;;;;4.68;3.35;;;;;;;;;;5360492;26;25122;-76
2024/04/17 11:50:48;;;;;;;2.97;2.58;;;;;;;;;;5365697;26;25052;-77
2024/04/17 11:53:14;;;;;;;6.75;2.78;;;;;;;;;;5366037;26;25052;-77
2024/04/17 11:55:40;;;;;;;3.65;2.80;;;;;;;;;;5374640;26;25034;-76
2024/04/17 11:58:06;;;;;;;7.82;2.80;;;;;;;;;;5382383;26;25149;-78
2024/04/17 12:00:32;;;;;;;4.65;3.05;;;;;;;;;;5339359;26;25051;-76
2024/04/17 12:02:58;;;;;;;8.90;2.60;;;;;;;;;;5369879;26;25053;-77
2024/04/17 12:05:24;;;;;;;4.47;2.50;;;;;;;;;;5373912;26;25045;-76
2024/04/17 12:07:51;;;;;;;4.03;2.90;;;;;;;;;;5360213;26;25034;-75
2024/04/17 12:10:19;;;;;;;3.75;2.67;;;;;;;;;;5372789;26;25048;-74
2024/04/17 12:12:45;;;;;;;3.72;2.75;;;;;;;;;;5368950;26;25059;-76
2024/04/17 12:15:11;;;;;;;3.38;2.72;;;;;;;;;;5380903;26;25064;-75
2024/04/17 12:17:37;;;;;;;3.97;2.40;;;;;;;;;;5383551;26;25051;-72
2024/04/17 12:20:03;;;;;;;3.28;2.70;;;;;;;;;;5380068;26;25054;-74
2024/04/17 12:22:29;;;;;;;5.78;2.70;;;;;;;;;;5390965;26;25052;-76
2024/04/17 12:27:40;;;;;;;6.75;3.30;;;;;;;;;;5382056;26;25105;-75
2024/04/17 12:30:06;;;;;;;5.00;2.90;;;;;;;;;;5384404;26;25070;-74
2024/04/17 12:32:32;;;;;;;5.85;2.83;;;;;;;;;;5372357;26;25326;-75
2024/04/17 12:34:58;;;;;;;3.38;3.08;;;;;;;;;;5351067;26;25046;-74
2024/04/17 12:37:24;;;;;;;8.10;3.33;;;;;;;;;;5373341;26;25160;-74
2024/04/17 12:39:50;;;;;;;4.72;3.13;;;;;;;;;;5372987;26;25151;-74
2024/04/17 12:42:16;;;;;;;4.90;2.88;;;;;;;;;;5395936;26;25070;-75
2024/04/17 12:44:42;;;;;;;3.33;3.03;;;;;;;;;;5371623;26;25109;-75
2024/04/17 12:47:08;;;;;;;3.47;3.05;;;;;;;;;;5362921;26;25062;-74
2024/04/17 12:49:34;;;;;;;2.97;2.70;;;;;;;;;;5365571;26;25062;-74
2024/04/17 12:52:00;;;;;;;4.28;2.67;;;;;;;;;;5361381;26;25064;-74
2024/04/17 12:54:26;;;;;;;2.80;2.60;;;;;;;;;;5373485;26;25041;-74
2024/04/17 12:56:52;;;;;;;4.38;2.25;;;;;;;;;;5392953;21;25057;-73
2024/04/17 12:59:19;;;;;;;2.35;2.25;;;;;;;;;;5365909;26;25042;-75
2024/04/17 13:01:45;;;;;;;2.33;2.17;;;;;;;;;;5382587;26;25071;-74
2024/04/17 13:04:11;;;;;;;2.40;2.22;;;;;;;;;;5382833;26;25039;-75
2024/04/17 13:06:37;;;;;;;1.98;1.88;;;;;;;;;;5385165;26;25122;-82
2024/04/17 13:09:03;;;;;;;1.85;1.50;;;;;;;;;;5383977;26;25038;-78
2024/04/17 13:11:29;;;;;;;1.80;1.60;;;;;;;;;;5388810;26;25061;-77
2024/04/17 13:13:56;;;;;;;2.10;1.60;;;;;;;;;;5379026;26;25060;-77
2024/04/17 13:16:22;;;;;;;2.28;1.80;;;;;;;;;;5386597;26;25066;-76
2024/04/17 13:18:48;;;;;;;1.80;1.70;;;;;;;;;;5379267;26;25046;-75
2024/04/17 13:21:18;;;;;;;2.17;1.60;;;;;;;;;;5375733;26;25064;-79
2024/04/17 13:23:44;;;;;;;1.80;1.70;;;;;;;;;;5387309;26;25042;-76
2024/04/17 13:26:10;;;;;;;1.48;1.38;;;;;;;;;;5382546;26;25063;-77
2024/04/17 13:28:36;;;;;;;2.05;1.80;;;;;;;;;;5380216;26;25035;-75
2024/04/17 13:31:05;;;;;;;2.17;1.65;;;;;;;;;;5378787;26;25087;-75
2024/04/17 13:33:31;;;;;;;2.05;1.55;;;;;;;;;;5385995;26;25064;-76
2024/04/17 13:35:58;;;;;;;4.10;2.00;;;;;;;;;;5380357;26;25051;-77
2024/04/17 13:38:25;;;;;;;1.75;1.65;;;;;;;;;;5385578;26;25046;-74
2024/04/17 13:41:09;;;;;;;2.08;1.70;;;;;;;;;;5376521;26;25059;-76
2024/04/17 13:43:36;;;;;;;2.20;2.00;;;;;;;;;;5377654;26;25041;-76
2024/04/17 13:46:06;;;;;;;3.30;1.90;;;;;;;;;;5392377;26;25053;-78
2024/04/17 13:48:32;;;;;;;2.35;1.67;;;;;;;;;;5378268;26;24053;-76
2024/04/17 13:50:59;;;;;;;4.75;2.20;;;;;;;;;;5386056;26;25059;-75
2024/04/17 13:53:25;;;;;;;3.33;1.90;;;;;;;;;;5386172;26;25044;-78
2024/04/17 13:55:51;;;;;;;4.50;2.78;;;;;;;;;;5384233;26;25069;-77
2024/04/17 13:58:17;;;;;;;11.13;3.70;;;;;;;;;;5387939;26;25053;-77
2024/04/17 14:00:43;;;;;;;6.05;3.20;;;;;;;;;;5381642;26;25125;-74
2024/04/17 14:03:09;;;;;;;7.45;3.38;;;;;;;;;;5386547;26;25066;-75
2024/04/17 14:05:35;;;;;;;7.45;3.42;;;;;;;;;;5379145;26;25070;-73
2024/04/17 14:08:02;;;;;;;7.03;3.65;;;;;;;;;;5377512;26;25055;-76
2024/04/17 14:10:28;;;;;;;4.70;2.92;;;;;;;;;;5407547;26;25149;-74
2024/04/17 14:12:54;;;;;;;4.10;3.40;;;;;;;;;;5377855;26;25120;-76
2024/04/17 14:15:20;;;;;;;7.53;4.45;;;;;;;;;;5380890;26;25063;-77
2024/04/17 14:17:46;;;;;;;7.97;3.28;;;;;;;;;;5374910;26;25055;-75
2024/04/17 14:20:12;;;;;;;6.55;3.45;;;;;;;;;;5376485;26;25136;-76
2024/04/17 14:22:39;;;;;;;5.65;2.30;;;;;;;;;;5376513;26;25047;-76
2024/04/17 14:25:05;;;;;;;4.40;1.77;;;;;;;;;;5374272;26;25063;-76
2024/04/17 14:27:31;;;;;;;4.93;1.85;;;;;;;;;;5387618;26;25086;-76
2024/04/17 14:29:57;;;;;;;5.78;1.83;;;;;;;;;;5377357;26;25028;-76
2024/04/17 14:32:23;;;;;;;5.15;2.17;;;;;;;;;;5378594;26;25075;-75
2024/04/17 14:34:49;;;;;;;3.70;1.75;;;;;;;;;;5378800;26;25044;-77
2024/04/17 14:37:15;;;;;;;5.07;1.85;;;;;;;;;;5387643;26;25059;-76
2024/04/17 14:39:41;;;;;;;3.15;1.55;;;;;;;;;;5381558;26;25080;-75